| time (UTC) | temp F | wind direction | speed MPH | gust MPH | rain 1hr in | rain 24hr in | rain mn in | humidity % | barometer mb |
| 20260831185847 | 101 | 226 | 1.0 | 5.0 | 0.00 | 0.00 | 0.00 | 33 | 1016.6 |
| 20260831185321 | 101 | 192 | 2.0 | 7.0 | 0.00 | 0.00 | 0.00 | 34 | 1016.7 |
| 20260831184820 | 101 | 172 | 3.0 | 6.0 | 0.00 | 0.00 | 0.00 | 34 | 1016.7 |
| 20260831184334 | 101 | 178 | 0.0 | 7.0 | 0.00 | 0.00 | 0.00 | 33 | 1016.7 |
| 20260831183828 | 101 | 230 | 0.0 | 7.0 | 0.00 | 0.00 | 0.00 | 33 | 1016.7 |
| 20260831183343 | 101 | 177 | 1.0 | 5.0 | 0.00 | 0.00 | 0.00 | 35 | 1016.9 |
| 20260831182817 | 100 | 168 | 0.0 | 4.0 | 0.00 | 0.00 | 0.00 | 36 | 1016.8 |
| 20260831182332 | 100 | 48 | 1.0 | 8.0 | 0.00 | 0.00 | 0.00 | 35 | 1017.0 |
| 20260831181826 | 100 | 217 | 4.0 | 7.0 | 0.00 | 0.00 | 0.00 | 33 | 1017.1 |
| 20260831181340 | 100 | 248 | 0.0 | 6.0 | 0.00 | 0.00 | 0.00 | 37 | 1017.1 |
| 20260831180834 | 100 | 60 | 3.0 | 6.0 | 0.00 | 0.00 | 0.00 | 36 | 1017.3 |
| 20260831180333 | 100 | 207 | 1.0 | 7.0 | 0.00 | 0.00 | 0.00 | 35 | 1017.3 |
| 20260831175828 | 99 | 214 | 4.0 | 7.0 | 0.00 | 0.00 | 0.00 | 35 | 1017.3 |
| 20260831175324 | 100 | 212 | 3.0 | 6.0 | 0.00 | 0.00 | 0.00 | 36 | 1017.3 |
| 20260831174819 | 99 | 232 | 3.0 | 6.0 | 0.00 | 0.00 | 0.00 | 36 | 1017.3 |
| 20260831174333 | 99 | 210 | 0.0 | 6.0 | 0.00 | 0.00 | 0.00 | 38 | 1017.4 |
| 20260831173828 | 99 | 210 | 4.0 | 7.0 | 0.00 | 0.00 | 0.00 | 36 | 1017.4 |
| 20260831173323 | 98 | 224 | 2.0 | 7.0 | 0.00 | 0.00 | 0.00 | 39 | 1017.4 |
| 20260831172857 | 98 | 213 | 1.0 | 7.0 | 0.00 | 0.00 | 0.00 | 39 | 1017.5 |
| 20260831172335 | 98 | 153 | 4.0 | 6.0 | 0.00 | 0.00 | 0.00 | 39 | 1017.6 |
| 20260831171829 | 97 | 203 | 2.0 | 7.0 | 0.00 | 0.00 | 0.00 | 41 | 1017.7 |
| 20260831171323 | 97 | 160 | 2.0 | 8.0 | 0.00 | 0.00 | 0.00 | 41 | 1017.7 |
| 20260831170819 | 97 | 177 | 5.0 | 8.0 | 0.00 | 0.00 | 0.00 | 41 | 1017.8 |
| 20260831170354 | 97 | 195 | 2.0 | 8.0 | 0.00 | 0.00 | 0.00 | 41 | 1017.9 |
| 20260831165828 | 97 | 207 | 5.0 | 8.0 | 0.00 | 0.00 | 0.00 | 40 | 1018.0 |
| 20260831165323 | 97 | 281 | 0.0 | 7.0 | 0.00 | 0.00 | 0.00 | 42 | 1018.1 |
| 20260831164819 | 97 | 207 | 4.0 | 7.0 | 0.00 | 0.00 | 0.00 | 41 | 1018.2 |
| 20260831164338 | 97 | 190 | 3.0 | 4.0 | 0.00 | 0.00 | 0.00 | 43 | 1018.2 |
| 20260831163852 | 96 | 214 | 0.0 | 3.0 | 0.00 | 0.00 | 0.00 | 44 | 1018.2 |
| 20260831163345 | 96 | 309 | 1.0 | 6.0 | 0.00 | 0.00 | 0.00 | 43 | 1018.2 |
| 20260831162819 | 95 | 275 | 1.0 | 8.0 | 0.00 | 0.00 | 0.00 | 45 | 1018.2 |
| 20260831162335 | 95 | 230 | 0.0 | 5.0 | 0.00 | 0.00 | 0.00 | 45 | 1018.1 |
| 20260831161829 | 95 | 167 | 1.0 | 5.0 | 0.00 | 0.00 | 0.00 | 46 | 1018.3 |
| 20260831161324 | 94 | 217 | 0.0 | 6.0 | 0.00 | 0.00 | 0.00 | 47 | 1018.2 |
| 20260831160819 | 94 | 23 | 2.0 | 10.0 | 0.00 | 0.00 | 0.00 | 47 | 1018.3 |
| 20260831160334 | 94 | 227 | 1.0 | 7.0 | 0.00 | 0.00 | 0.00 | 48 | 1018.3 |
| 20260831155833 | 93 | 192 | 2.0 | 5.0 | 0.00 | 0.00 | 0.00 | 48 | 1018.3 |
| 20260831155348 | 93 | 221 | 3.0 | 9.0 | 0.00 | 0.00 | 0.00 | 48 | 1018.3 |
| 20260831154820 | 93 | 213 | 3.0 | 9.0 | 0.00 | 0.00 | 0.00 | 47 | 1018.3 |
| 20260831154332 | 93 | 243 | 1.0 | 9.0 | 0.00 | 0.00 | 0.00 | 49 | 1018.4 |
| 20260831153825 | 92 | 234 | 3.0 | 9.0 | 0.00 | 0.00 | 0.00 | 50 | 1018.4 |
| 20260831153320 | 92 | 195 | 1.0 | 7.0 | 0.00 | 0.00 | 0.00 | 51 | 1018.3 |
| 20260831152854 | 92 | 210 | 4.0 | 7.0 | 0.00 | 0.00 | 0.00 | 50 | 1018.3 |
| 20260831152327 | 91 | 295 | 2.0 | 8.0 | 0.00 | 0.00 | 0.00 | 50 | 1018.4 |
| 20260831151822 | 91 | 216 | 1.0 | 6.0 | 0.00 | 0.00 | 0.00 | 51 | 1018.3 |
| 20260831151317 | 91 | 221 | 4.0 | 8.0 | 0.00 | 0.00 | 0.00 | 51 | 1018.3 |
| 20260831150836 | 90 | 233 | 2.0 | 8.0 | 0.00 | 0.00 | 0.00 | 52 | 1018.4 |
| 20260831150330 | 90 | 221 | 3.0 | 9.0 | 0.00 | 0.00 | 0.00 | 51 | 1018.4 |
| 20260831145824 | 90 | 223 | 3.0 | 9.0 | 0.00 | 0.00 | 0.00 | 52 | 1018.3 |
| 20260831145320 | 90 | 210 | 3.0 | 6.0 | 0.00 | 0.00 | 0.00 | 52 | 1018.3 |
| 20260831144834 | 90 | 203 | 3.0 | 6.0 | 0.00 | 0.00 | 0.00 | 53 | 1018.2 |
| 20260831144349 | 89 | 210 | 3.0 | 6.0 | 0.00 | 0.00 | 0.00 | 55 | 1018.1 |
| 20260831143822 | 89 | 198 | 2.0 | 11.0 | 0.00 | 0.00 | 0.00 | 55 | 1018.1 |
| 20260831143316 | 88 | 209 | 4.0 | 11.0 | 0.00 | 0.00 | 0.00 | 55 | 1018.1 |
| 20260831142831 | 88 | 208 | 6.0 | 11.0 | 0.00 | 0.00 | 0.00 | 55 | 1018.1 |
| 20260831142328 | 88 | 210 | 4.0 | 9.0 | 0.00 | 0.00 | 0.00 | 56 | 1018.0 |
| 20260831141821 | 88 | 219 | 4.0 | 8.0 | 0.00 | 0.00 | 0.00 | 55 | 1018.0 |
| 20260831141335 | 87 | 173 | 3.0 | 7.0 | 0.00 | 0.00 | 0.00 | 56 | 1018.0 |
| 20260831140829 | 87 | 217 | 4.0 | 7.0 | 0.00 | 0.00 | 0.00 | 56 | 1018.0 |
| 20260831140323 | 87 | 191 | 3.0 | 8.0 | 0.00 | 0.00 | 0.00 | 57 | 1018.0 |
| 20260831135817 | 87 | 226 | 2.0 | 10.0 | 0.00 | 0.00 | 0.00 | 58 | 1018.0 |
| 20260831135331 | 86 | 212 | 2.0 | 10.0 | 0.00 | 0.00 | 0.00 | 58 | 1017.9 |
| 20260831134825 | 86 | 231 | 2.0 | 9.0 | 0.00 | 0.00 | 0.00 | 57 | 1018.0 |
| 20260831134322 | 86 | 113 | 2.0 | 8.0 | 0.00 | 0.00 | 0.00 | 58 | 1017.9 |
| 20260831133856 | 85 | 208 | 2.0 | 9.0 | 0.00 | 0.00 | 0.00 | 59 | 1018.0 |
| 20260831133329 | 85 | 79 | 3.0 | 9.0 | 0.00 | 0.00 | 0.00 | 60 | 1017.9 |
| 20260831132824 | 85 | 156 | 3.0 | 5.0 | 0.00 | 0.00 | 0.00 | 59 | 1017.8 |
| 20260831132320 | 84 | 191 | 2.0 | 5.0 | 0.00 | 0.00 | 0.00 | 60 | 1017.8 |
| 20260831131833 | 84 | 214 | 2.0 | 5.0 | 0.00 | 0.00 | 0.00 | 60 | 1017.8 |
| 20260831131328 | 84 | 153 | 1.0 | 4.0 | 0.00 | 0.00 | 0.00 | 60 | 1017.8 |
| 20260831130821 | 84 | 207 | 1.0 | 4.0 | 0.00 | 0.00 | 0.00 | 61 | 1017.8 |
| 20260831130339 | 83 | 205 | 1.0 | 4.0 | 0.00 | 0.00 | 0.00 | 62 | 1017.7 |
| 20260831125833 | 82 | 212 | 1.0 | 3.0 | 0.00 | 0.00 | 0.00 | 63 | 1017.7 |
| 20260831125347 | 81 | 186 | 0.0 | 4.0 | 0.00 | 0.00 | 0.00 | 65 | 1017.5 |
| 20260831124821 | 80 | 233 | 1.0 | 4.0 | 0.00 | 0.00 | 0.00 | 66 | 1017.5 |
| 20260831124355 | 78 | 208 | 0.0 | 3.0 | 0.00 | 0.00 | 0.00 | 69 | 1017.5 |
| 20260831123828 | 76 | 176 | 1.0 | 3.0 | 0.00 | 0.00 | 0.00 | 71 | 1017.4 |
| 20260831123324 | 75 | 164 | 0.0 | 2.0 | 0.00 | 0.00 | 0.00 | 72 | 1017.4 |
| 20260831122817 | 75 | 195 | 0.0 | 0.0 | 0.00 | 0.00 | 0.00 | 72 | 1017.3 |
| 20260831122332 | 75 | 145 | 0.0 | 0.0 | 0.00 | 0.00 | 0.00 | 73 | 1017.2 |
| 20260831121830 | 74 | 155 | 0.0 | 1.0 | 0.00 | 0.00 | 0.00 | 73 | 1017.1 |
| 20260831121345 | 74 | 178 | 0.0 | 0.0 | 0.00 | 0.00 | 0.00 | 73 | 1016.9 |
| 20260831120819 | 74 | 170 | 0.0 | 2.0 | 0.00 | 0.00 | 0.00 | 73 | 1016.9 |
| 20260831120332 | 74 | 157 | 0.0 | 3.0 | 0.00 | 0.00 | 0.00 | 72 | 1016.8 |
| 20260831115828 | 74 | 168 | 0.0 | 3.0 | 0.00 | 0.00 | 0.00 | 72 | 1016.7 |
| 20260831115322 | 74 | 169 | 0.0 | 5.0 | 0.00 | 0.00 | 0.00 | 72 | 1016.7 |
| 20260831114817 | 74 | 184 | 1.0 | 5.0 | 0.00 | 0.00 | 0.00 | 72 | 1016.6 |
| 20260831114331 | 74 | 164 | 0.0 | 2.0 | 0.00 | 0.00 | 0.00 | 72 | 1016.6 |
| 20260831113827 | 74 | 177 | 0.0 | 2.0 | 0.00 | 0.00 | 0.00 | 72 | 1016.5 |
| 20260831113322 | 74 | 191 | 0.0 | 2.0 | 0.00 | 0.00 | 0.00 | 71 | 1016.4 |
| 20260831112816 | 74 | 186 | 0.0 | 4.0 | 0.00 | 0.00 | 0.00 | 71 | 1016.3 |
| 20260831112327 | 74 | 154 | 1.0 | 4.0 | 0.00 | 0.00 | 0.00 | 71 | 1016.4 |
| 20260831111821 | 75 | 160 | 1.0 | 3.0 | 0.00 | 0.00 | 0.00 | 70 | 1016.4 |
| 20260831111336 | 75 | 179 | 1.0 | 3.0 | 0.00 | 0.00 | 0.00 | 70 | 1016.3 |
| 20260831110830 | 75 | 172 | 1.0 | 4.0 | 0.00 | 0.00 | 0.00 | 70 | 1016.3 |
| 20260831110327 | 75 | 83 | 1.0 | 4.0 | 0.00 | 0.00 | 0.00 | 69 | 1016.4 |
| 20260831105826 | 75 | 131 | 2.0 | 4.0 | 0.00 | 0.00 | 0.00 | 69 | 1016.4 |
| 20260831105322 | 75 | 121 | 2.0 | 4.0 | 0.00 | 0.00 | 0.00 | 69 | 1016.3 |
| 20260831104856 | 75 | 172 | 2.0 | 4.0 | 0.00 | 0.00 | 0.00 | 69 | 1016.3 |
| 20260831104350 | 75 | 191 | 2.0 | 6.0 | 0.00 | 0.00 | 0.00 | 69 | 1016.3 |
| 20260831103823 | 75 | 190 | 1.0 | 6.0 | 0.00 | 0.00 | 0.00 | 69 | 1016.2 |
| 20260831103318 | 75 | 146 | 0.0 | 5.0 | 0.00 | 0.00 | 0.00 | 69 | 1016.2 |
| 20260831102833 | 75 | 204 | 1.0 | 5.0 | 0.00 | 0.00 | 0.00 | 70 | 1016.1 |
| 20260831102347 | 74 | 169 | 1.0 | 2.0 | 0.00 | 0.00 | 0.00 | 70 | 1016.0 |
| 20260831101820 | 74 | 156 | 0.0 | 2.0 | 0.00 | 0.00 | 0.00 | 70 | 1016.1 |
| 20260831101318 | 74 | 108 | 0.0 | 2.0 | 0.00 | 0.00 | 0.00 | 70 | 1016.1 |
| 20260831100833 | 74 | 172 | 0.0 | 0.0 | 0.00 | 0.00 | 0.00 | 69 | 1016.1 |
| 20260831100328 | 74 | 172 | 0.0 | 1.0 | 0.00 | 0.00 | 0.00 | 69 | 1016.2 |
| 20260831095824 | 74 | 160 | 0.0 | 1.0 | 0.00 | 0.00 | 0.00 | 69 | 1016.1 |
| 20260831095339 | 74 | 169 | 0.0 | 0.0 | 0.00 | 0.00 | 0.00 | 69 | 1016.1 |
| 20260831094833 | 75 | 179 | 0.0 | 0.0 | 0.00 | 0.00 | 0.00 | 69 | 1016.1 |
| 20260831094327 | 75 | 176 | 0.0 | 0.0 | 0.00 | 0.00 | 0.00 | 69 | 1016.1 |
| 20260831093842 | 75 | 167 | 0.0 | 0.0 | 0.00 | 0.00 | 0.00 | 68 | 1016.1 |
| 20260831093355 | 75 | 218 | 0.0 | 0.0 | 0.00 | 0.00 | 0.00 | 67 | 1016.1 |
| 20260831092827 | 75 | 221 | 0.0 | 2.0 | 0.00 | 0.00 | 0.00 | 67 | 1016.1 |
| 20260831092326 | 76 | 170 | 0.0 | 2.0 | 0.00 | 0.00 | 0.00 | 67 | 1016.1 |
| 20260831091817 | 76 | 170 | 1.0 | 3.0 | 0.00 | 0.00 | 0.00 | 67 | 1015.9 |
| 20260831091332 | 76 | 169 | 1.0 | 3.0 | 0.00 | 0.00 | 0.00 | 67 | 1015.9 |
| 20260831090827 | 76 | 159 | 0.0 | 3.0 | 0.00 | 0.00 | 0.00 | 67 | 1016.0 |
| 20260831090322 | 76 | 122 | 1.0 | 3.0 | 0.00 | 0.00 | 0.00 | 66 | 1015.9 |
| 20260831085817 | 76 | 159 | 1.0 | 4.0 | 0.00 | 0.00 | 0.00 | 66 | 1015.9 |
| 20260831085332 | 76 | 143 | 1.0 | 5.0 | 0.00 | 0.00 | 0.00 | 67 | 1015.8 |
| 20260831084830 | 76 | 152 | 1.0 | 5.0 | 0.00 | 0.00 | 0.00 | 67 | 1015.8 |
| 20260831084325 | 76 | 141 | 0.0 | 2.0 | 0.00 | 0.00 | 0.00 | 67 | 1015.8 |
| 20260831083839 | 76 | 166 | 0.0 | 3.0 | 0.00 | 0.00 | 0.00 | 67 | 1015.8 |
| 20260831083333 | 76 | 183 | 0.0 | 3.0 | 0.00 | 0.00 | 0.00 | 66 | 1015.7 |
| 20260831082829 | 76 | 70 | 0.0 | 3.0 | 0.00 | 0.00 | 0.00 | 66 | 1015.7 |
| 20260831082324 | 77 | 160 | 0.0 | 5.0 | 0.00 | 0.00 | 0.00 | 65 | 1015.7 |
| 20260831081857 | 77 | 115 | 2.0 | 5.0 | 0.00 | 0.00 | 0.00 | 65 | 1015.7 |
| 20260831081331 | 77 | 142 | 1.0 | 4.0 | 0.00 | 0.00 | 0.00 | 65 | 1015.6 |
| 20260831080826 | 77 | 139 | 1.0 | 4.0 | 0.00 | 0.00 | 0.00 | 65 | 1015.5 |
| 20260831080325 | 77 | 135 | 1.0 | 5.0 | 0.00 | 0.00 | 0.00 | 65 | 1015.5 |
| 20260831075820 | 77 | 137 | 2.0 | 6.0 | 0.00 | 0.00 | 0.00 | 65 | 1015.4 |
| 20260831075336 | 77 | 178 | 2.0 | 5.0 | 0.00 | 0.00 | 0.00 | 65 | 1015.5 |
| 20260831074829 | 77 | 159 | 1.0 | 4.0 | 0.00 | 0.00 | 0.00 | 65 | 1015.5 |
| 20260831074323 | 77 | 150 | 1.0 | 5.0 | 0.00 | 0.00 | 0.00 | 65 | 1015.4 |
| 20260831073819 | 77 | 207 | 2.0 | 5.0 | 0.00 | 0.00 | 0.00 | 65 | 1015.5 |
| 20260831073334 | 77 | 169 | 1.0 | 4.0 | 0.00 | 0.00 | 0.00 | 65 | 1015.4 |
| 20260831072830 | 77 | 186 | 2.0 | 5.0 | 0.00 | 0.00 | 0.00 | 66 | 1015.5 |
| 20260831072349 | 77 | 171 | 3.0 | 5.0 | 0.00 | 0.00 | 0.00 | 66 | 1015.4 |
| 20260831071823 | 77 | 163 | 0.0 | 4.0 | 0.00 | 0.00 | 0.00 | 66 | 1015.3 |
| 20260831071317 | 77 | 158 | 0.0 | 6.0 | 0.00 | 0.00 | 0.00 | 66 | 1015.4 |
| 20260831070832 | 78 | 186 | 2.0 | 6.0 | 0.00 | 0.00 | 0.00 | 65 | 1015.5 |
| 20260831070327 | 78 | 162 | 0.0 | 6.0 | 0.00 | 0.00 | 0.00 | 65 | 1015.5 |
| 20260831065821 | 78 | 124 | 2.0 | 6.0 | 0.00 | 0.00 | 0.00 | 65 | 1015.6 |
| 20260831065335 | 78 | 197 | 1.0 | 6.0 | 0.00 | 0.00 | 0.00 | 65 | 1015.6 |
| 20260831064850 | 78 | 195 | 0.0 | 6.0 | 0.00 | 0.00 | 0.00 | 65 | 1015.6 |
| 20260831064328 | 79 | 221 | 2.0 | 8.0 | 0.00 | 0.00 | 0.00 | 65 | 1015.5 |
| 20260831063823 | 79 | 147 | 3.0 | 8.0 | 0.00 | 0.00 | 0.00 | 65 | 1015.5 |
| 20260831063318 | 79 | 168 | 3.0 | 6.0 | 0.00 | 0.00 | 0.00 | 65 | 1015.5 |
| 20260831062833 | 79 | 162 | 2.0 | 6.0 | 0.00 | 0.00 | 0.00 | 65 | 1015.6 |
| 20260831062328 | 79 | 174 | 2.0 | 5.0 | 0.00 | 0.00 | 0.00 | 65 | 1015.5 |
| 20260831061843 | 79 | 150 | 2.0 | 6.0 | 0.00 | 0.00 | 0.00 | 65 | 1015.4 |
| 20260831061317 | 79 | 164 | 2.0 | 6.0 | 0.00 | 0.00 | 0.00 | 65 | 1015.4 |
| 20260831060832 | 79 | 143 | 2.0 | 5.0 | 0.00 | 0.00 | 0.00 | 65 | 1015.5 |
| 20260831060331 | 79 | 120 | 2.0 | 5.0 | 0.00 | 0.00 | 0.00 | 66 | 1015.5 |
| 20260831055826 | 79 | 193 | 2.0 | 7.0 | 0.00 | 0.00 | 0.00 | 66 | 1015.5 |
| 20260831055322 | 79 | 179 | 1.0 | 7.0 | 0.00 | 0.00 | 0.00 | 66 | 1015.5 |
| 20260831054816 | 79 | 159 | 1.0 | 4.0 | 0.00 | 0.00 | 0.00 | 66 | 1015.6 |
| 20260831054330 | 79 | 186 | 1.0 | 4.0 | 0.00 | 0.00 | 0.00 | 66 | 1015.6 |
| 20260831053825 | 79 | 209 | 1.0 | 5.0 | 0.00 | 0.00 | 0.00 | 66 | 1015.5 |
| 20260831053320 | 79 | 178 | 2.0 | 5.0 | 0.00 | 0.00 | 0.00 | 66 | 1015.5 |
| 20260831052819 | 79 | 151 | 1.0 | 3.0 | 0.00 | 0.00 | 0.00 | 65 | 1015.4 |
| 20260831052334 | 79 | 117 | 1.0 | 3.0 | 0.00 | 0.00 | 0.00 | 65 | 1015.4 |
| 20260831051829 | 79 | 168 | 1.0 | 4.0 | 0.00 | 0.00 | 0.00 | 65 | 1015.3 |
| 20260831051324 | 79 | 154 | 0.0 | 3.0 | 0.00 | 0.00 | 0.00 | 65 | 1015.3 |
| 20260831050818 | 80 | 157 | 0.0 | 3.0 | 0.00 | 0.00 | 0.00 | 64 | 1015.3 |
| 20260831050332 | 80 | 165 | 1.0 | 4.0 | 0.00 | 0.00 | 0.00 | 64 | 1015.4 |
| 20260831045828 | 80 | 167 | 1.0 | 4.0 | 0.00 | 0.00 | 0.00 | 64 | 1015.4 |
| 20260831045323 | 80 | 167 | 0.0 | 3.0 | 0.00 | 0.00 | 0.00 | 63 | 1015.3 |
| 20260831044821 | 80 | 165 | 1.0 | 4.0 | 0.00 | 0.00 | 0.00 | 63 | 1015.3 |
| 20260831044316 | 80 | 164 | 1.0 | 3.0 | 0.00 | 0.00 | 0.00 | 63 | 1015.3 |
| 20260831043831 | 80 | 206 | 0.0 | 3.0 | 0.00 | 0.00 | 0.00 | 63 | 1015.2 |
| 20260831043345 | 80 | 183 | 0.0 | 2.0 | 0.00 | 0.00 | 0.00 | 62 | 1015.2 |
| 20260831042818 | 80 | 184 | 0.0 | 2.0 | 0.00 | 0.00 | 0.00 | 62 | 1015.3 |
| 20260831042332 | 81 | 154 | 0.0 | 0.0 | 0.00 | 0.00 | 0.00 | 61 | 1015.2 |
| 20260831041826 | 81 | 162 | 0.0 | 0.0 | 0.00 | 0.00 | 0.00 | 61 | 1015.2 |
| 20260831041341 | 81 | 139 | 0.0 | 2.0 | 0.00 | 0.00 | 0.00 | 60 | 1015.1 |
| 20260831040818 | 81 | 182 | 0.0 | 2.0 | 0.00 | 0.00 | 0.00 | 60 | 1015.1 |
| 20260831040334 | 81 | 193 | 0.0 | 1.0 | 0.00 | 0.00 | 0.00 | 59 | 1015.1 |
| 20260831035829 | 82 | 176 | 0.0 | 3.0 | 0.00 | 0.00 | 0.00 | 59 | 1015.1 |
| 20260831035343 | 82 | 143 | 0.0 | 3.0 | 0.00 | 0.00 | 0.00 | 58 | 1015.0 |
| 20260831034817 | 82 | 177 | 1.0 | 3.0 | 0.00 | 0.00 | 0.00 | 58 | 1015.0 |
| 20260831034332 | 82 | 188 | 0.0 | 3.0 | 0.00 | 0.00 | 0.00 | 58 | 1015.0 |
| 20260831033827 | 82 | 68 | 0.0 | 3.0 | 0.00 | 0.00 | 0.00 | 58 | 1015.0 |
| 20260831033322 | 81 | 64 | 0.0 | 3.0 | 0.00 | 0.00 | 0.00 | 59 | 1014.9 |
| 20260831032821 | 81 | 154 | 0.0 | 3.0 | 0.00 | 0.00 | 0.00 | 59 | 1014.9 |
| 20260831032336 | 81 | 169 | 0.0 | 1.0 | 0.00 | 0.00 | 0.00 | 60 | 1014.9 |
| 20260831031851 | 80 | 189 | 0.0 | 0.0 | 0.00 | 0.00 | 0.00 | 60 | 1014.8 |
| 20260831031325 | 80 | 162 | 0.0 | 0.0 | 0.00 | 0.00 | 0.00 | 60 | 1014.8 |
| 20260831030819 | 80 | 139 | 0.0 | 0.0 | 0.00 | 0.00 | 0.00 | 59 | 1014.7 |
| 20260831030332 | 80 | 193 | 0.0 | 0.0 | 0.00 | 0.00 | 0.00 | 58 | 1014.8 |
| 20260831025827 | 80 | 225 | 0.0 | 0.0 | 0.00 | 0.00 | 0.00 | 58 | 1014.7 |
| 20260831025322 | 80 | 174 | 0.0 | 0.0 | 0.00 | 0.00 | 0.00 | 58 | 1014.7 |
| 20260831024820 | 80 | 144 | 0.0 | 0.0 | 0.00 | 0.00 | 0.00 | 58 | 1014.6 |
| 20260831024335 | 80 | 144 | 0.0 | 0.0 | 0.00 | 0.00 | 0.00 | 57 | 1014.6 |
| 20260831023829 | 80 | 136 | 0.0 | 0.0 | 0.00 | 0.00 | 0.00 | 56 | 1014.5 |
| 20260831023344 | 81 | 84 | 0.0 | 0.0 | 0.00 | 0.00 | 0.00 | 55 | 1014.5 |
| 20260831022838 | 82 | 85 | 0.0 | 0.0 | 0.00 | 0.00 | 0.00 | 55 | 1014.4 |
| 20260831022332 | 82 | 84 | 0.0 | 0.0 | 0.00 | 0.00 | 0.00 | 55 | 1014.3 |
| 20260831021827 | 82 | 89 | 0.0 | 0.0 | 0.00 | 0.00 | 0.00 | 54 | 1014.3 |
| 20260831021321 | 82 | 86 | 0.0 | 3.0 | 0.00 | 0.00 | 0.00 | 55 | 1014.3 |
| 20260831020856 | 81 | 160 | 0.0 | 3.0 | 0.00 | 0.00 | 0.00 | 55 | 1014.3 |
| 20260831020332 | 81 | 205 | 0.0 | 0.0 | 0.00 | 0.00 | 0.00 | 56 | 1014.3 |
| 20260831015846 | 82 | 205 | 0.0 | 0.0 | 0.00 | 0.00 | 0.00 | 55 | 1014.2 |
| 20260831015324 | 82 | 205 | 0.0 | 0.0 | 0.00 | 0.00 | 0.00 | 55 | 1014.2 |
| 20260831014819 | 83 | 205 | 0.0 | 0.0 | 0.00 | 0.00 | 0.00 | 53 | 1014.1 |
| 20260831014334 | 83 | 205 | 0.0 | 0.0 | 0.00 | 0.00 | 0.00 | 53 | 1014.0 |
| 20260831013829 | 83 | 205 | 0.0 | 0.0 | 0.00 | 0.00 | 0.00 | 52 | 1013.9 |
| 20260831013324 | 84 | 168 | 0.0 | 0.0 | 0.00 | 0.00 | 0.00 | 52 | 1013.8 |
| 20260831012819 | 84 | 168 | 0.0 | 0.0 | 0.00 | 0.00 | 0.00 | 51 | 1013.8 |
| 20260831012354 | 85 | 168 | 0.0 | 0.0 | 0.00 | 0.00 | 0.00 | 51 | 1013.7 |
| 20260831011825 | 85 | 167 | 0.0 | 0.0 | 0.00 | 0.00 | 0.00 | 50 | 1013.6 |
| 20260831011324 | 85 | 167 | 0.0 | 0.0 | 0.00 | 0.00 | 0.00 | 50 | 1013.6 |
| 20260831010819 | 86 | 159 | 0.0 | 0.0 | 0.00 | 0.00 | 0.00 | 49 | 1013.4 |
| 20260831010354 | 86 | 158 | 0.0 | 0.0 | 0.00 | 0.00 | 0.00 | 49 | 1013.6 |
| 20260831005848 | 87 | 193 | 0.0 | 0.0 | 0.00 | 0.00 | 0.00 | 48 | 1013.6 |
| 20260831005341 | 87 | 156 | 0.0 | 0.0 | 0.00 | 0.00 | 0.00 | 48 | 1013.7 |
| 20260831004836 | 88 | 156 | 0.0 | 0.0 | 0.00 | 0.00 | 0.00 | 47 | 1013.5 |
| 20260831004351 | 88 | 157 | 0.0 | 0.0 | 0.00 | 0.00 | 0.00 | 46 | 1013.5 |
| 20260831003823 | 89 | 160 | 0.0 | 0.0 | 0.00 | 0.00 | 0.00 | 46 | 1013.6 |
| 20260831003319 | 89 | 187 | 0.0 | 0.0 | 0.00 | 0.00 | 0.00 | 46 | 1013.7 |
| 20260831002833 | 90 | 159 | 0.0 | 0.0 | 0.00 | 0.00 | 0.00 | 45 | 1013.5 |
| 20260831002348 | 90 | 159 | 0.0 | 0.0 | 0.00 | 0.00 | 0.00 | 44 | 1013.6 |
| 20260831001825 | 91 | 160 | 0.0 | 0.0 | 0.00 | 0.00 | 0.00 | 44 | 1013.6 |
| 20260831001320 | 91 | 155 | 0.0 | 0.0 | 0.00 | 0.00 | 0.00 | 43 | 1013.6 |
| 20260831000835 | 92 | 153 | 0.0 | 0.0 | 0.00 | 0.00 | 0.00 | 42 | 1013.6 |
| 20260831000332 | 92 | 164 | 0.0 | 3.0 | 0.00 | 0.00 | 0.00 | 42 | 1013.7 |
| 20260830235825 | 93 | 162 | 1.0 | 3.0 | 0.00 | 0.00 | 0.00 | 41 | 1013.7 |
| 20260830235340 | 93 | 208 | 0.0 | 0.0 | 0.00 | 0.00 | 0.00 | 42 | 1013.6 |
| 20260830234834 | 93 | 179 | 0.0 | 4.0 | 0.00 | 0.00 | 0.00 | 41 | 1013.7 |
| 20260830234348 | 94 | 178 | 0.0 | 4.0 | 0.00 | 0.00 | 0.00 | 40 | 1013.7 |
| 20260830233826 | 94 | 155 | 0.0 | 2.0 | 0.00 | 0.00 | 0.00 | 40 | 1013.7 |
| 20260830233321 | 95 | 193 | 0.0 | 2.0 | 0.00 | 0.00 | 0.00 | 38 | 1013.8 |
| 20260830232835 | 95 | 163 | 0.0 | 6.0 | 0.00 | 0.00 | 0.00 | 38 | 1013.7 |
| 20260830232329 | 95 | 197 | 3.0 | 6.0 | 0.00 | 0.00 | 0.00 | 37 | 1013.8 |
| 20260830231824 | 96 | 154 | 1.0 | 4.0 | 0.00 | 0.00 | 0.00 | 37 | 1013.7 |
| 20260830231319 | 96 | 188 | 1.0 | 4.0 | 0.00 | 0.00 | 0.00 | 36 | 1013.7 |
| 20260830230833 | 96 | 179 | 1.0 | 7.0 | 0.00 | 0.00 | 0.00 | 36 | 1013.7 |
| 20260830230328 | 97 | 164 | 1.0 | 7.0 | 0.00 | 0.00 | 0.00 | 35 | 1013.7 |
| 20260830225827 | 97 | 169 | 1.0 | 5.0 | 0.00 | 0.00 | 0.00 | 36 | 1013.7 |
| 20260830225322 | 97 | 167 | 2.0 | 4.0 | 0.00 | 0.00 | 0.00 | 36 | 1013.8 |
| 20260830224817 | 97 | 176 | 0.0 | 7.0 | 0.00 | 0.00 | 0.00 | 36 | 1013.8 |
| 20260830224332 | 98 | 140 | 3.0 | 7.0 | 0.00 | 0.00 | 0.00 | 35 | 1013.7 |
| 20260830223826 | 98 | 203 | 1.0 | 6.0 | 0.00 | 0.00 | 0.00 | 35 | 1013.8 |
| 20260830223321 | 98 | 175 | 1.0 | 5.0 | 0.00 | 0.00 | 0.00 | 34 | 1013.8 |
| 20260830222816 | 99 | 192 | 2.0 | 5.0 | 0.00 | 0.00 | 0.00 | 35 | 1013.7 |
| 20260830222331 | 100 | 155 | 1.0 | 6.0 | 0.00 | 0.00 | 0.00 | 34 | 1013.8 |
| 20260830221830 | 100 | 164 | 2.0 | 6.0 | 0.00 | 0.00 | 0.00 | 34 | 1013.8 |
| 20260830221325 | 101 | 176 | 0.0 | 8.0 | 0.00 | 0.00 | 0.00 | 34 | 1013.8 |
| 20260830220821 | 101 | 210 | 4.0 | 7.0 | 0.00 | 0.00 | 0.00 | 32 | 1013.9 |
| 20260830220335 | 102 | 266 | 1.0 | 8.0 | 0.00 | 0.00 | 0.00 | 33 | 1013.8 |
| 20260830215850 | 101 | 182 | 2.0 | 8.0 | 0.00 | 0.00 | 0.00 | 34 | 1013.9 |
| 20260830215324 | 102 | 217 | 1.0 | 5.0 | 0.00 | 0.00 | 0.00 | 34 | 1013.8 |
| 20260830214819 | 101 | 183 | 1.0 | 8.0 | 0.00 | 0.00 | 0.00 | 35 | 1013.8 |
| 20260830214318 | 100 | 204 | 3.0 | 8.0 | 0.00 | 0.00 | 0.00 | 35 | 1013.9 |
| 20260830213834 | 100 | 181 | 3.0 | 7.0 | 0.00 | 0.00 | 0.00 | 35 | 1013.9 |
| 20260830213328 | 100 | 224 | 2.0 | 6.0 | 0.00 | 0.00 | 0.00 | 34 | 1014.0 |
| 20260830212823 | 100 | 184 | 1.0 | 6.0 | 0.00 | 0.00 | 0.00 | 35 | 1014.1 |
| 20260830212318 | 100 | 232 | 1.0 | 5.0 | 0.00 | 0.00 | 0.00 | 36 | 1014.0 |
| 20260830211833 | 100 | 188 | 0.0 | 6.0 | 0.00 | 0.00 | 0.00 | 36 | 1014.1 |
| 20260830211326 | 100 | 217 | 0.0 | 6.0 | 0.00 | 0.00 | 0.00 | 36 | 1014.1 |
| 20260830210821 | 100 | 195 | 1.0 | 5.0 | 0.00 | 0.00 | 0.00 | 35 | 1014.1 |
| 20260830210319 | 99 | 206 | 1.0 | 7.0 | 0.00 | 0.00 | 0.00 | 36 | 1014.1 |
| 20260830205834 | 99 | 164 | 2.0 | 7.0 | 0.00 | 0.00 | 0.00 | 35 | 1014.2 |
| 20260830205349 | 100 | 200 | 0.0 | 7.0 | 0.00 | 0.00 | 0.00 | 36 | 1014.3 |
| 20260830204822 | 100 | 176 | 3.0 | 7.0 | 0.00 | 0.00 | 0.00 | 35 | 1014.2 |
| 20260830204316 | 99 | 176 | 3.0 | 8.0 | 0.00 | 0.00 | 0.00 | 36 | 1014.4 |
| 20260830203831 | 99 | 223 | 3.0 | 9.0 | 0.00 | 0.00 | 0.00 | 34 | 1014.4 |
| 20260830203325 | 99 | 214 | 4.0 | 9.0 | 0.00 | 0.00 | 0.00 | 35 | 1014.4 |
| 20260830202820 | 99 | 109 | 3.0 | 7.0 | 0.00 | 0.00 | 0.00 | 36 | 1014.5 |
| 20260830202318 | 99 | 207 | 3.0 | 7.0 | 0.00 | 0.00 | 0.00 | 35 | 1014.5 |
| 20260830201833 | 100 | 213 | 3.0 | 8.0 | 0.00 | 0.00 | 0.00 | 35 | 1014.6 |
| 20260830201348 | 100 | 235 | 1.0 | 7.0 | 0.00 | 0.00 | 0.00 | 34 | 1014.6 |
| 20260830200821 | 100 | 213 | 3.0 | 7.0 | 0.00 | 0.00 | 0.00 | 35 | 1014.7 |
| 20260830200336 | 100 | 218 | 2.0 | 9.0 | 0.00 | 0.00 | 0.00 | 36 | 1014.7 |
| 20260830195831 | 101 | 234 | 3.0 | 9.0 | 0.00 | 0.00 | 0.00 | 36 | 1014.6 |
| 20260830195325 | 101 | 341 | 1.0 | 7.0 | 0.00 | 0.00 | 0.00 | 36 | 1014.7 |
| 20260830194839 | 100 | 286 | 1.0 | 9.0 | 0.00 | 0.00 | 0.00 | 37 | 1014.9 |
| 20260830194333 | 100 | 196 | 2.0 | 11.0 | 0.00 | 0.00 | 0.00 | 36 | 1015.0 |
| 20260830193832 | 100 | 229 | 5.0 | 11.0 | 0.00 | 0.00 | 0.00 | 36 | 1015.1 |
| 20260830193327 | 100 | 303 | 1.0 | 6.0 | 0.00 | 0.00 | 0.00 | 37 | 1015.0 |
| 20260830192822 | 99 | 160 | 0.0 | 7.0 | 0.00 | 0.00 | 0.00 | 39 | 1014.9 |
| 20260830192317 | 100 | 226 | 3.0 | 8.0 | 0.00 | 0.00 | 0.00 | 36 | 1015.0 |
| 20260830191832 | 100 | 137 | 3.0 | 8.0 | 0.00 | 0.00 | 0.00 | 37 | 1015.1 |
| 20260830191326 | 100 | 222 | 2.0 | 7.0 | 0.00 | 0.00 | 0.00 | 37 | 1015.2 |
| 20260830190820 | 100 | 205 | 2.0 | 5.0 | 0.00 | 0.00 | 0.00 | 38 | 1015.3 |
| 20260830190334 | 99 | 208 | 1.0 | 9.0 | 0.00 | 0.00 | 0.00 | 38 | 1015.3 |